Time;durP1;ratioP1;P1;durP2;ratioP2;P2;SDS_P1;SDS_P2;PMS_P1;PMS_P2;Temp;Humidity;BMP_temperature;BMP_pressure;BME280_temperature;BME280_humidity;BME280_pressure;Samples;Min_cycle;Max_cycle;Signal;HPM_P1;HPM_P2
2021/08/15 00:01:45;;;;;;;2.03;0.70;;;;;;;17.85;74.79;100095.31;5154972;27;20034;-60
2021/08/15 00:04:11;;;;;;;2.08;0.40;;;;;;;17.85;74.37;100095.31;5154772;27;20090;-60
2021/08/15 00:06:37;;;;;;;3.97;0.70;;;;;;;17.85;74.71;100095.31;5155051;27;20043;-60
2021/08/15 00:09:03;;;;;;;2.08;0.50;;;;;;;17.85;74.45;100090.75;5155168;27;20038;-60
2021/08/15 00:11:29;;;;;;;3.72;1.00;;;;;;;17.84;74.43;100091.78;5154609;27;20098;-60
2021/08/15 00:13:55;;;;;;;2.00;0.65;;;;;;;17.86;74.15;100094.25;5154510;27;20046;-60
2021/08/15 00:16:20;;;;;;;1.58;0.52;;;;;;;17.85;74.23;100095.31;5154755;27;20079;-60
2021/08/15 00:18:46;;;;;;;3.78;0.60;;;;;;;17.83;74.13;100095.50;5154816;27;20492;-60
2021/08/15 00:21:13;;;;;;;2.13;0.50;;;;;;;17.83;74.10;100087.47;5154357;27;20035;-60
2021/08/15 00:23:39;;;;;;;2.92;0.65;;;;;;;17.83;74.21;100089.31;5136305;27;20038;-61
2021/08/15 00:26:05;;;;;;;1.73;0.77;;;;;;;17.82;74.29;100080.47;5154456;27;20042;-61
2021/08/15 00:28:30;;;;;;;1.52;0.70;;;;;;;17.82;74.18;100077.78;5154439;27;20075;-61
2021/08/15 00:31:03;;;;;;;3.65;1.23;;;;;;;17.83;74.02;100073.28;5154413;27;20034;-61
2021/08/15 00:33:30;;;;;;;3.22;0.95;;;;;;;17.82;74.11;100071.66;5154284;27;20103;-61
2021/08/15 00:35:55;;;;;;;2.92;0.77;;;;;;;17.80;74.08;100073.69;5154664;27;20031;-60
2021/08/15 00:38:21;;;;;;;3.67;0.90;;;;;;;17.81;73.97;100067.31;5154288;27;20079;-61
2021/08/15 00:40:47;;;;;;;2.00;0.60;;;;;;;17.81;73.61;100062.78;5154178;27;20030;-60
2021/08/15 00:43:13;;;;;;;3.92;1.05;;;;;;;17.81;73.68;100068.13;5154333;27;20120;-61
2021/08/15 00:45:38;;;;;;;2.35;0.65;;;;;;;17.81;73.85;100067.31;5154128;27;20022;-61
2021/08/15 00:48:11;;;;;;;1.85;0.63;;;;;;;17.79;73.66;100067.50;5154178;27;20103;-61
2021/08/15 00:50:37;;;;;;;5.13;1.58;;;;;;;17.80;73.49;100065.66;5153880;27;20484;-61
2021/08/15 00:53:03;;;;;;;1.75;0.88;;;;;;;17.80;73.58;100054.97;5154107;27;20505;-60
2021/08/15 00:55:29;;;;;;;3.03;0.77;;;;;;;17.81;73.39;100064.63;5153857;27;20168;-61
2021/08/15 00:57:55;;;;;;;2.95;0.90;;;;;;;17.81;73.64;100064.63;5154031;27;20075;-61
2021/08/15 01:00:21;;;;;;;2.65;0.55;;;;;;;17.80;73.30;100063.00;5154763;27;20166;-60
2021/08/15 01:02:48;;;;;;;2.50;0.68;;;;;;;17.80;73.30;100057.66;5153726;27;20030;-61
2021/08/15 01:05:15;;;;;;;2.30;0.70;;;;;;;17.80;73.42;100063.00;5153956;27;20449;-60
2021/08/15 01:07:41;;;;;;;3.17;0.90;;;;;;;17.83;73.11;100059.91;5153661;27;20038;-60
2021/08/15 01:10:08;;;;;;;3.00;0.80;;;;;;;17.83;72.64;100059.91;5153694;27;20133;-61
2021/08/15 01:12:33;;;;;;;4.95;1.20;;;;;;;17.83;72.67;100052.72;5153262;27;20056;-61
2021/08/15 01:15:00;;;;;;;2.50;0.90;;;;;;;17.83;72.48;100052.72;5153761;27;20031;-61
2021/08/15 01:17:29;;;;;;;3.20;0.93;;;;;;;17.85;72.47;100049.84;5153566;27;20041;-61
2021/08/15 01:19:58;;;;;;;3.22;0.55;;;;;;;17.85;72.44;100041.84;5153431;27;20061;-61
2021/08/15 01:22:25;;;;;;;3.03;0.60;;;;;;;17.84;72.13;100037.50;5134948;27;20067;-60
2021/08/15 01:24:51;;;;;;;2.10;0.95;;;;;;;17.84;72.20;100029.47;5153467;27;20094;-60
2021/08/15 01:27:22;;;;;;;3.03;0.80;;;;;;;17.85;72.05;100025.78;5153310;27;20062;-61
2021/08/15 01:29:48;;;;;;;4.00;0.73;;;;;;;17.85;72.18;100026.59;5153517;27;20043;-60
2021/08/15 01:32:18;;;;;;;2.47;0.80;;;;;;;17.83;72.03;100027.84;5153117;27;20027;-60
2021/08/15 01:34:45;;;;;;;2.55;0.60;;;;;;;17.82;72.17;100026.19;5153367;27;20038;-60
2021/08/15 01:37:11;;;;;;;3.78;0.90;;;;;;;17.82;72.10;100023.53;5153105;27;20034;-60
2021/08/15 01:39:41;;;;;;;2.13;0.60;;;;;;;17.82;72.04;100027.00;5132429;27;20031;-60
2021/08/15 01:42:08;;;;;;;4.65;0.90;;;;;;;17.82;71.94;100016.31;5152345;27;20575;-60
2021/08/15 01:44:34;;;;;;;4.05;1.38;;;;;;;17.83;71.87;100017.97;5153299;27;20034;-60
2021/08/15 01:46:59;;;;;;;2.38;0.85;;;;;;;17.85;71.84;100021.25;5153212;27;20537;-61
2021/08/15 01:49:25;;;;;;;2.47;0.70;;;;;;;17.84;71.75;100019.63;5153078;27;20185;-60
2021/08/15 01:51:51;;;;;;;2.92;0.80;;;;;;;17.85;71.80;100017.78;5153042;27;20041;-60
2021/08/15 01:54:16;;;;;;;7.70;0.90;;;;;;;17.84;71.85;100005.41;5152803;27;20163;-60
2021/08/15 01:56:42;;;;;;;3.20;0.82;;;;;;;17.84;71.57;100000.91;5152940;27;20038;-60
2021/08/15 01:59:08;;;;;;;1.80;0.65;;;;;;;17.85;71.53;100004.41;5152028;27;20038;-60
2021/08/15 02:01:34;;;;;;;3.47;1.05;;;;;;;17.85;71.75;99996.38;5152769;27;20035;-60
2021/08/15 02:03:59;;;;;;;2.67;0.73;;;;;;;17.83;71.64;99998.44;5152515;27;20035;-60
2021/08/15 02:06:25;;;;;;;6.22;1.25;;;;;;;17.81;71.87;99995.13;5152608;27;20034;-61
2021/08/15 02:08:51;;;;;;;6.43;1.00;;;;;;;17.80;72.01;99988.16;5152646;27;20134;-60
2021/08/15 02:11:19;;;;;;;3.95;1.15;;;;;;;17.79;72.02;99990.00;5152571;27;20037;-61
2021/08/15 02:13:45;;;;;;;6.97;1.77;;;;;;;17.78;71.94;99991.03;5133960;27;20069;-61
2021/08/15 02:16:37;;;;;;;6.30;1.10;;;;;;;17.78;71.82;99987.53;5152248;27;20508;-61
2021/08/15 02:22:45;;;;;;;3.17;0.82;;;;;;;17.80;71.86;99994.31;5146649;27;20049;-61
2021/08/15 02:25:12;;;;;;;5.07;1.23;;;;;;;17.79;71.76;99981.16;5116699;27;20027;-60
2021/08/15 02:27:40;;;;;;;4.43;1.23;;;;;;;17.79;71.81;99979.28;5152864;27;20033;-61
2021/08/15 02:30:08;;;;;;;6.10;1.42;;;;;;;17.76;71.95;99976.22;5152347;27;20027;-60
2021/08/15 02:32:36;;;;;;;6.25;1.40;;;;;;;17.74;72.06;99976.44;5152412;27;20079;-61
2021/08/15 02:35:03;;;;;;;6.30;1.60;;;;;;;17.74;71.82;99976.44;5146012;27;20031;-60
2021/08/15 02:37:30;;;;;;;4.18;0.90;;;;;;;17.78;71.75;99984.84;5134981;27;20031;-60
2021/08/15 02:39:59;;;;;;;5.75;1.08;;;;;;;17.78;71.63;99977.66;5132520;27;20035;-61
2021/08/15 02:42:29;;;;;;;4.32;1.08;;;;;;;17.79;71.41;99975.81;5137608;27;20088;-60
2021/08/15 02:44:55;;;;;;;2.85;0.68;;;;;;;17.79;71.43;99965.94;5135919;27;20118;-61
2021/08/15 02:47:21;;;;;;;4.35;1.02;;;;;;;17.78;71.59;99963.47;5131618;27;20027;-61
2021/08/15 02:49:47;;;;;;;3.60;1.20;;;;;;;17.77;71.60;99965.34;5119309;27;20083;-60
2021/08/15 02:52:12;;;;;;;6.82;1.20;;;;;;;17.75;71.65;99959.34;5132183;27;20456;-61
2021/08/15 02:54:38;;;;;;;3.53;1.05;;;;;;;17.77;71.60;99962.66;5118974;27;20490;-61
2021/08/15 02:57:04;;;;;;;4.65;0.90;;;;;;;17.77;71.44;99968.00;5139567;27;20485;-60
2021/08/15 02:59:31;;;;;;;3.35;1.00;;;;;;;17.78;71.35;99966.97;5148783;27;20504;-60
2021/08/15 03:01:56;;;;;;;4.03;1.02;;;;;;;17.79;71.34;99962.44;5152088;27;20468;-60
2021/08/15 03:04:22;;;;;;;3.55;1.30;;;;;;;17.80;71.45;99961.41;5151716;27;20062;-60
2021/08/15 03:06:48;;;;;;;4.60;1.13;;;;;;;17.79;71.12;99955.25;5152082;27;20031;-60
2021/08/15 03:09:13;;;;;;;7.68;1.60;;;;;;;17.79;71.29;99954.44;5151994;27;20042;-60
2021/08/15 03:11:39;;;;;;;3.83;1.10;;;;;;;17.80;71.20;99956.06;5153198;27;20091;-60
2021/08/15 03:14:05;;;;;;;2.65;1.00;;;;;;;17.79;71.21;99955.25;5155730;27;20050;-61
2021/08/15 03:16:30;;;;;;;5.13;1.17;;;;;;;17.81;71.21;99955.03;5155585;27;20488;-61
2021/08/15 03:18:56;;;;;;;4.07;0.85;;;;;;;17.80;71.33;99950.72;5155918;27;20038;-60
2021/08/15 03:21:24;;;;;;;3.20;1.20;;;;;;;17.81;71.05;99947.00;5155421;27;20062;-60
2021/08/15 03:23:50;;;;;;;3.53;0.80;;;;;;;17.82;71.29;99943.34;5155900;27;20023;-59
2021/08/15 03:26:16;;;;;;;3.53;1.10;;;;;;;17.81;71.14;99941.66;5155806;27;20046;-60
2021/08/15 03:28:43;;;;;;;3.17;1.02;;;;;;;17.81;71.11;99942.50;5137226;27;20380;-59
2021/08/15 03:31:08;;;;;;;2.13;0.98;;;;;;;17.81;71.17;99947.84;5154614;27;20472;-60
2021/08/15 03:33:34;;;;;;;5.20;1.30;;;;;;;17.81;71.26;99936.31;5136817;27;20033;-60
2021/08/15 03:36:01;;;;;;;4.07;1.27;;;;;;;17.81;71.28;99925.63;5155592;27;20031;-60
2021/08/15 03:41:33;;;;;;;1.63;0.90;;;;;;;17.80;71.44;99922.16;5500375;22;20136;-61
2021/08/15 03:43:58;;;;;;;4.97;1.30;;;;;;;17.80;71.09;99926.66;5033777;28;20534;-60
2021/08/15 03:46:24;;;;;;;3.38;0.85;;;;;;;17.80;71.34;99926.66;5034001;28;20391;-61
2021/08/15 03:48:51;;;;;;;4.32;1.25;;;;;;;17.80;71.25;99914.13;5033357;28;20461;-60
2021/08/15 03:51:16;;;;;;;3.50;1.00;;;;;;;17.80;71.12;99922.16;5033626;28;20041;-61
2021/08/15 03:53:42;;;;;;;5.43;1.10;;;;;;;17.79;71.22;99909.78;5033402;28;20407;-61
2021/08/15 03:56:08;;;;;;;4.95;1.20;;;;;;;17.80;71.28;99903.44;5033879;28;20037;-61
2021/08/15 03:58:33;;;;;;;5.03;1.40;;;;;;;17.80;71.24;99902.59;5032528;28;20040;-61
2021/08/15 04:00:59;;;;;;;4.75;1.02;;;;;;;17.81;71.29;99904.25;5032140;28;20483;-61
2021/08/15 04:03:25;;;;;;;8.25;1.55;;;;;;;17.80;71.35;99900.78;5033453;28;20037;-61
2021/08/15 04:05:55;;;;;;;5.55;1.35;;;;;;;17.79;71.33;99895.63;5033175;28;20038;-61
2021/08/15 04:08:21;;;;;;;4.93;1.55;;;;;;;17.79;71.35;99895.63;5033451;28;20284;-61
2021/08/15 04:10:47;;;;;;;9.63;2.22;;;;;;;17.79;71.50;99890.28;5033337;28;20623;-61
2021/08/15 04:13:12;;;;;;;7.43;1.63;;;;;;;17.79;71.33;99896.44;5033227;28;20044;-61
2021/08/15 04:15:38;;;;;;;5.75;1.90;;;;;;;17.78;71.21;99894.78;5033234;28;20041;-61
2021/08/15 04:18:04;;;;;;;6.75;2.13;;;;;;;17.79;71.46;99895.63;5033328;28;20017;-61
2021/08/15 04:20:30;;;;;;;5.15;1.65;;;;;;;17.79;71.38;99890.28;5032000;28;20065;-61
2021/08/15 04:22:55;;;;;;;6.45;1.60;;;;;;;17.78;71.23;99894.78;5032432;28;20033;-61
2021/08/15 04:25:21;;;;;;;6.15;1.40;;;;;;;17.78;71.44;99888.63;5033024;28;20037;-60
2021/08/15 04:27:46;;;;;;;6.90;1.55;;;;;;;17.78;71.50;99894.78;5033119;28;20488;-61
2021/08/15 04:30:12;;;;;;;9.18;1.63;;;;;;;17.78;71.43;99893.97;5032768;28;20041;-60
2021/08/15 04:32:38;;;;;;;6.35;1.55;;;;;;;17.78;71.36;99894.78;5032915;28;20034;-60
2021/08/15 04:35:05;;;;;;;7.30;1.23;;;;;;;17.78;71.15;99897.47;5032647;28;20029;-61
2021/08/15 04:37:30;;;;;;;6.53;1.55;;;;;;;17.78;71.50;99893.97;5032721;28;20045;-61
2021/08/15 04:39:56;;;;;;;5.28;1.48;;;;;;;17.78;71.14;99896.63;5032577;28;20037;-61
